sensor_id;sensor_type;location;lat;lon;timestamp;pressure;altitude;pressure_sealevel;temperature;humidity
69223;BME280;56514;51.816;-0.026;2023-02-14T00:02:28;102694.63;;;3.57;70.79
69223;BME280;56514;51.816;-0.026;2023-02-14T00:05:38;102692.97;;;3.50;70.65
69223;BME280;56514;51.816;-0.026;2023-02-14T00:08:42;102691.25;;;3.43;70.70
69223;BME280;56514;51.816;-0.026;2023-02-14T00:11:55;102687.88;;;3.35;70.53
69223;BME280;56514;51.816;-0.026;2023-02-14T00:15:02;102698.34;;;3.29;70.88
69223;BME280;56514;51.816;-0.026;2023-02-14T00:18:30;102691.44;;;3.20;70.44
69223;BME280;56514;51.816;-0.026;2023-02-14T00:21:58;102702.78;;;3.12;70.10
69223;BME280;56514;51.816;-0.026;2023-02-14T00:25:07;102699.34;;;3.08;70.22
69223;BME280;56514;51.816;-0.026;2023-02-14T00:28:16;102695.00;;;3.06;69.78
69223;BME280;56514;51.816;-0.026;2023-02-14T00:31:25;102683.72;;;3.02;70.17
69223;BME280;56514;51.816;-0.026;2023-02-14T00:34:34;102686.34;;;3.01;69.94
69223;BME280;56514;51.816;-0.026;2023-02-14T00:37:45;102684.63;;;2.97;70.11
69223;BME280;56514;51.816;-0.026;2023-02-14T00:40:55;102680.28;;;2.93;69.71
69223;BME280;56514;51.816;-0.026;2023-02-14T00:44:04;102676.00;;;2.89;70.19
69223;BME280;56514;51.816;-0.026;2023-02-14T00:47:14;102682.09;;;2.85;70.00
69223;BME280;56514;51.816;-0.026;2023-02-14T00:50:23;102678.63;;;2.81;70.34
69223;BME280;56514;51.816;-0.026;2023-02-14T00:53:32;102682.97;;;2.79;69.78
69223;BME280;56514;51.816;-0.026;2023-02-14T00:56:18;102679.53;;;2.77;70.10
69223;BME280;56514;51.816;-0.026;2023-02-14T00:59:03;102675.19;;;2.75;70.16
69223;BME280;56514;51.816;-0.026;2023-02-14T01:01:49;102669.09;;;2.73;69.93
69223;BME280;56514;51.816;-0.026;2023-02-14T01:04:34;102668.25;;;2.72;70.17
69223;BME280;56514;51.816;-0.026;2023-02-14T01:07:18;102666.50;;;2.71;70.38
69223;BME280;56514;51.816;-0.026;2023-02-14T01:10:06;102666.50;;;2.70;70.63
69223;BME280;56514;51.816;-0.026;2023-02-14T01:12:51;102670.03;;;2.66;70.29
69223;BME280;56514;51.816;-0.026;2023-02-14T01:15:41;102676.97;;;2.65;69.95
69223;BME280;56514;51.816;-0.026;2023-02-14T01:18:26;102676.13;;;2.65;70.14
69223;BME280;56514;51.816;-0.026;2023-02-14T01:24:04;102670.91;;;2.65;69.66
69223;BME280;56514;51.816;-0.026;2023-02-14T01:26:49;102668.28;;;2.65;69.76
69223;BME280;56514;51.816;-0.026;2023-02-14T01:29:34;102663.94;;;2.65;69.88
69223;BME280;56514;51.816;-0.026;2023-02-14T01:32:19;102664.81;;;2.67;69.70
69223;BME280;56514;51.816;-0.026;2023-02-14T01:35:05;102657.88;;;2.68;69.87
69223;BME280;56514;51.816;-0.026;2023-02-14T01:37:49;102663.91;;;2.70;69.66
69223;BME280;56514;51.816;-0.026;2023-02-14T01:40:41;102663.91;;;2.71;69.50
69223;BME280;56514;51.816;-0.026;2023-02-14T01:43:26;102661.28;;;2.73;69.77
69223;BME280;56514;51.816;-0.026;2023-02-14T01:46:11;102662.16;;;2.75;69.33
69223;BME280;56514;51.816;-0.026;2023-02-14T01:51:52;102659.56;;;2.75;69.33
69223;BME280;56514;51.816;-0.026;2023-02-14T01:54:44;102656.09;;;2.70;69.57
69223;BME280;56514;51.816;-0.026;2023-02-14T01:57:36;102659.59;;;2.69;69.59
69223;BME280;56514;51.816;-0.026;2023-02-14T02:00:23;102645.69;;;2.68;69.46
69223;BME280;56514;51.816;-0.026;2023-02-14T02:06:27;102663.94;;;2.67;69.17
69223;BME280;56514;51.816;-0.026;2023-02-14T02:09:29;102656.13;;;2.65;69.03
69223;BME280;56514;51.816;-0.026;2023-02-14T02:12:15;102645.72;;;2.61;69.09
69223;BME280;56514;51.816;-0.026;2023-02-14T02:15:02;102660.50;;;2.59;69.43
69223;BME280;56514;51.816;-0.026;2023-02-14T02:18:18;102643.13;;;2.58;69.23
69223;BME280;56514;51.816;-0.026;2023-02-14T02:24:20;102640.50;;;2.59;69.45
69223;BME280;56514;51.816;-0.026;2023-02-14T02:36:32;102644.00;;;2.57;69.50
69223;BME280;56514;51.816;-0.026;2023-02-14T02:48:18;102642.22;;;2.69;69.22
69223;BME280;56514;51.816;-0.026;2023-02-14T02:51:12;102640.44;;;2.73;69.13
69223;BME280;56514;51.816;-0.026;2023-02-14T02:54:32;102643.03;;;2.76;69.21
69223;BME280;56514;51.816;-0.026;2023-02-14T02:57:26;102642.16;;;2.80;69.33
69223;BME280;56514;51.816;-0.026;2023-02-14T03:00:15;102630.84;;;2.81;69.24
69223;BME280;56514;51.816;-0.026;2023-02-14T03:03:01;102634.34;;;2.81;69.12
69223;BME280;56514;51.816;-0.026;2023-02-14T03:06:05;102633.44;;;2.81;69.24
69223;BME280;56514;51.816;-0.026;2023-02-14T03:08:50;102625.63;;;2.82;69.27
69223;BME280;56514;51.816;-0.026;2023-02-14T03:11:39;102634.31;;;2.84;69.20
69223;BME280;56514;51.816;-0.026;2023-02-14T03:14:38;102638.63;;;2.85;69.63
69223;BME280;56514;51.816;-0.026;2023-02-14T03:17:36;102629.97;;;2.88;68.92
69223;BME280;56514;51.816;-0.026;2023-02-14T03:20:58;102633.41;;;2.88;69.40
69223;BME280;56514;51.816;-0.026;2023-02-14T03:33:07;102619.41;;;3.04;69.23
69223;BME280;56514;51.816;-0.026;2023-02-14T03:36:00;102612.41;;;3.08;69.40
69223;BME280;56514;51.816;-0.026;2023-02-14T03:38:58;102608.94;;;3.12;69.75
69223;BME280;56514;51.816;-0.026;2023-02-14T03:41:50;102605.41;;;3.16;69.47
69223;BME280;56514;51.816;-0.026;2023-02-14T03:44:38;102607.97;;;3.20;69.55
69223;BME280;56514;51.816;-0.026;2023-02-14T03:47:27;102603.63;;;3.24;69.10
69223;BME280;56514;51.816;-0.026;2023-02-14T03:50:17;102597.50;;;3.25;69.26
69223;BME280;56514;51.816;-0.026;2023-02-14T03:53:05;102596.63;;;3.29;69.17
69223;BME280;56514;51.816;-0.026;2023-02-14T03:56:18;102600.03;;;3.34;69.21
69223;BME280;56514;51.816;-0.026;2023-02-14T03:59:12;102597.41;;;3.37;69.11
69223;BME280;56514;51.816;-0.026;2023-02-14T04:04:47;102608.72;;;3.37;69.42
69223;BME280;56514;51.816;-0.026;2023-02-14T04:07:46;102608.72;;;3.37;68.97
69223;BME280;56514;51.816;-0.026;2023-02-14T04:10:32;102613.91;;;3.39;69.41
69223;BME280;56514;51.816;-0.026;2023-02-14T04:13:17;102610.47;;;3.35;69.16
69223;BME280;56514;51.816;-0.026;2023-02-14T04:16:02;102620.91;;;3.32;69.23
69223;BME280;56514;51.816;-0.026;2023-02-14T04:18:49;102611.41;;;3.27;69.35
69223;BME280;56514;51.816;-0.026;2023-02-14T04:21:53;102606.25;;;3.19;69.77
69223;BME280;56514;51.816;-0.026;2023-02-14T04:24:37;102608.94;;;3.12;69.87
69223;BME280;56514;51.816;-0.026;2023-02-14T04:27:22;102596.75;;;3.08;69.69
69223;BME280;56514;51.816;-0.026;2023-02-14T04:30:07;102595.91;;;3.09;70.10
69223;BME280;56514;51.816;-0.026;2023-02-14T04:32:52;102599.38;;;3.09;70.00
69223;BME280;56514;51.816;-0.026;2023-02-14T04:35:37;102605.44;;;3.10;69.96
69223;BME280;56514;51.816;-0.026;2023-02-14T04:38:22;102601.13;;;3.09;69.76
69223;BME280;56514;51.816;-0.026;2023-02-14T04:41:07;102598.53;;;3.07;69.42
69223;BME280;56514;51.816;-0.026;2023-02-14T04:43:52;102602.00;;;3.06;69.35
69223;BME280;56514;51.816;-0.026;2023-02-14T04:46:37;102605.50;;;3.05;69.66
69223;BME280;56514;51.816;-0.026;2023-02-14T04:49:22;102603.75;;;3.06;69.69
69223;BME280;56514;51.816;-0.026;2023-02-14T04:52:07;102606.38;;;3.04;69.45
69223;BME280;56514;51.816;-0.026;2023-02-14T04:54:52;102599.41;;;3.02;69.58
69223;BME280;56514;51.816;-0.026;2023-02-14T04:57:37;102603.78;;;3.03;69.90
69223;BME280;56514;51.816;-0.026;2023-02-14T05:00:22;102607.25;;;3.02;69.65
69223;BME280;56514;51.816;-0.026;2023-02-14T05:03:07;102620.28;;;3.02;69.13
69223;BME280;56514;51.816;-0.026;2023-02-14T05:05:52;102609.00;;;3.00;69.62
69223;BME280;56514;51.816;-0.026;2023-02-14T05:08:37;102612.50;;;2.96;69.49
69223;BME280;56514;51.816;-0.026;2023-02-14T05:11:22;102606.44;;;2.94;69.22
69223;BME280;56514;51.816;-0.026;2023-02-14T05:14:07;102601.25;;;2.94;69.70
69223;BME280;56514;51.816;-0.026;2023-02-14T05:16:52;102602.09;;;2.93;69.78
69223;BME280;56514;51.816;-0.026;2023-02-14T05:19:37;102600.38;;;2.90;69.39
69223;BME280;56514;51.816;-0.026;2023-02-14T05:22:21;102604.72;;;2.90;69.61
69223;BME280;56514;51.816;-0.026;2023-02-14T05:25:06;102615.19;;;2.84;69.07
69223;BME280;56514;51.816;-0.026;2023-02-14T05:27:52;102614.38;;;2.77;69.49
69223;BME280;56514;51.816;-0.026;2023-02-14T05:30:37;102614.38;;;2.73;69.16
69223;BME280;56514;51.816;-0.026;2023-02-14T05:33:22;102613.53;;;2.72;69.76
69223;BME280;56514;51.816;-0.026;2023-02-14T05:36:07;102613.53;;;2.74;69.69
69223;BME280;56514;51.816;-0.026;2023-02-14T05:38:52;102620.44;;;2.78;69.59
69223;BME280;56514;51.816;-0.026;2023-02-14T05:41:37;102613.47;;;2.81;69.78
69223;BME280;56514;51.816;-0.026;2023-02-14T05:44:22;102614.34;;;2.83;70.03
69223;BME280;56514;51.816;-0.026;2023-02-14T05:47:07;102611.72;;;2.88;69.69
69223;BME280;56514;51.816;-0.026;2023-02-14T05:49:52;102608.22;;;2.89;70.21
69223;BME280;56514;51.816;-0.026;2023-02-14T05:52:37;102601.28;;;2.88;69.49
69223;BME280;56514;51.816;-0.026;2023-02-14T05:55:22;102603.91;;;2.85;69.47
69223;BME280;56514;51.816;-0.026;2023-02-14T05:58:08;102607.38;;;2.82;69.57
69223;BME280;56514;51.816;-0.026;2023-02-14T06:00:55;102606.53;;;2.80;69.87
69223;BME280;56514;51.816;-0.026;2023-02-14T06:03:41;102610.06;;;2.70;69.62
69223;BME280;56514;51.816;-0.026;2023-02-14T06:06:25;102610.13;;;2.60;69.56
69223;BME280;56514;51.816;-0.026;2023-02-14T06:09:10;102615.38;;;2.54;69.76
69223;BME280;56514;51.816;-0.026;2023-02-14T06:11:55;102613.66;;;2.50;69.62
69223;BME280;56514;51.816;-0.026;2023-02-14T06:14:40;102614.53;;;2.46;69.89
69223;BME280;56514;51.816;-0.026;2023-02-14T06:17:26;102618.91;;;2.44;70.04
69223;BME280;56514;51.816;-0.026;2023-02-14T06:20:11;102608.47;;;2.45;69.91
69223;BME280;56514;51.816;-0.026;2023-02-14T06:22:56;102611.06;;;2.47;69.91
69223;BME280;56514;51.816;-0.026;2023-02-14T06:25:41;102616.28;;;2.50;69.61
69223;BME280;56514;51.816;-0.026;2023-02-14T06:28:26;102616.25;;;2.51;70.18
69223;BME280;56514;51.816;-0.026;2023-02-14T06:31:17;102622.31;;;2.50;69.85
69223;BME280;56514;51.816;-0.026;2023-02-14T06:34:02;102615.41;;;2.46;69.86
69223;BME280;56514;51.816;-0.026;2023-02-14T06:36:47;102627.56;;;2.46;70.21
69223;BME280;56514;51.816;-0.026;2023-02-14T06:39:32;102625.84;;;2.45;70.31
69223;BME280;56514;51.816;-0.026;2023-02-14T06:42:17;102632.78;;;2.43;70.38
69223;BME280;56514;51.816;-0.026;2023-02-14T06:45:03;102631.94;;;2.41;70.11
69223;BME280;56514;51.816;-0.026;2023-02-14T06:47:49;102631.06;;;2.42;70.35
69223;BME280;56514;51.816;-0.026;2023-02-14T06:50:34;102636.25;;;2.45;70.22
69223;BME280;56514;51.816;-0.026;2023-02-14T06:53:20;102630.16;;;2.47;69.71
69223;BME280;56514;51.816;-0.026;2023-02-14T06:56:05;102637.09;;;2.50;69.68
69223;BME280;56514;51.816;-0.026;2023-02-14T06:58:50;102635.34;;;2.52;70.05
69223;BME280;56514;51.816;-0.026;2023-02-14T07:01:35;102640.53;;;2.55;69.67
69223;BME280;56514;51.816;-0.026;2023-02-14T07:04:20;102641.41;;;2.54;70.02
69223;BME280;56514;51.816;-0.026;2023-02-14T07:07:05;102640.53;;;2.53;69.87
69223;BME280;56514;51.816;-0.026;2023-02-14T07:09:50;102639.69;;;2.54;69.87
69223;BME280;56514;51.816;-0.026;2023-02-14T07:12:35;102636.19;;;2.57;69.70
69223;BME280;56514;51.816;-0.026;2023-02-14T07:15:23;102638.81;;;2.55;70.31
69223;BME280;56514;51.816;-0.026;2023-02-14T07:18:08;102639.69;;;2.57;69.95
69223;BME280;56514;51.816;-0.026;2023-02-14T07:20:54;102641.38;;;2.63;69.91
69223;BME280;56514;51.816;-0.026;2023-02-14T07:23:40;102648.31;;;2.64;69.96
69223;BME280;56514;51.816;-0.026;2023-02-14T07:26:24;102653.50;;;2.64;69.47
69223;BME280;56514;51.816;-0.026;2023-02-14T07:29:09;102657.00;;;2.63;69.94
69223;BME280;56514;51.816;-0.026;2023-02-14T07:31:54;102660.50;;;2.59;69.82
69223;BME280;56514;51.816;-0.026;2023-02-14T07:34:39;102661.38;;;2.56;70.36
69223;BME280;56514;51.816;-0.026;2023-02-14T07:37:23;102669.22;;;2.52;70.10
69223;BME280;56514;51.816;-0.026;2023-02-14T07:40:09;102657.06;;;2.48;70.53
69223;BME280;56514;51.816;-0.026;2023-02-14T07:42:55;102664.00;;;2.49;70.54
69223;BME280;56514;51.816;-0.026;2023-02-14T07:45:40;102660.53;;;2.53;70.26
69223;BME280;56514;51.816;-0.026;2023-02-14T07:48:25;102662.25;;;2.55;70.01
69223;BME280;56514;51.816;-0.026;2023-02-14T07:51:10;102663.97;;;2.58;70.53
69223;BME280;56514;51.816;-0.026;2023-02-14T07:53:55;102668.31;;;2.63;69.93
69223;BME280;56514;51.816;-0.026;2023-02-14T07:56:40;102676.94;;;2.70;69.86
69223;BME280;56514;51.816;-0.026;2023-02-14T07:59:25;102673.47;;;2.74;69.92
69223;BME280;56514;51.816;-0.026;2023-02-14T08:02:11;102668.22;;;2.78;69.92
69223;BME280;56514;51.816;-0.026;2023-02-14T08:04:56;102674.28;;;2.85;69.58
69223;BME280;56514;51.816;-0.026;2023-02-14T08:07:41;102675.09;;;2.93;69.58
69223;BME280;56514;51.816;-0.026;2023-02-14T08:10:27;102671.56;;;3.04;69.26
69223;BME280;56514;51.816;-0.026;2023-02-14T08:13:11;102674.94;;;3.15;69.86
69223;BME280;56514;51.816;-0.026;2023-02-14T08:15:56;102673.13;;;3.26;69.62
69223;BME280;56514;51.816;-0.026;2023-02-14T08:18:50;102667.84;;;3.37;69.32
69223;BME280;56514;51.816;-0.026;2023-02-14T08:21:35;102674.75;;;3.45;68.90
69223;BME280;56514;51.816;-0.026;2023-02-14T08:24:20;102684.22;;;3.55;69.05
69223;BME280;56514;51.816;-0.026;2023-02-14T08:27:05;102678.06;;;3.66;69.01
69223;BME280;56514;51.816;-0.026;2023-02-14T08:29:50;102682.31;;;3.74;69.23
69223;BME280;56514;51.816;-0.026;2023-02-14T08:32:34;102677.00;;;3.83;68.49
69223;BME280;56514;51.816;-0.026;2023-02-14T08:35:19;102679.53;;;3.94;68.42
69223;BME280;56514;51.816;-0.026;2023-02-14T08:38:04;102675.13;;;4.00;68.47
69223;BME280;56514;51.816;-0.026;2023-02-14T08:40:49;102683.78;;;4.05;68.46
69223;BME280;56514;51.816;-0.026;2023-02-14T08:43:34;102675.03;;;4.09;68.22
69223;BME280;56514;51.816;-0.026;2023-02-14T08:46:19;102674.91;;;4.18;68.13
69223;BME280;56514;51.816;-0.026;2023-02-14T08:49:03;102681.81;;;4.22;68.02
69223;BME280;56514;51.816;-0.026;2023-02-14T08:51:50;102683.63;;;4.20;67.76
69223;BME280;56514;51.816;-0.026;2023-02-14T08:54:35;102681.09;;;4.13;68.18
69223;BME280;56514;51.816;-0.026;2023-02-14T08:57:19;102688.97;;;4.08;68.09
69223;BME280;56514;51.816;-0.026;2023-02-14T09:00:05;102683.69;;;4.14;68.13
69223;BME280;56514;51.816;-0.026;2023-02-14T09:02:51;102680.94;;;4.25;67.87
69223;BME280;56514;51.816;-0.026;2023-02-14T09:05:37;102672.06;;;4.38;67.92
69223;BME280;56514;51.816;-0.026;2023-02-14T09:08:22;102672.78;;;4.53;67.77
69223;BME280;56514;51.816;-0.026;2023-02-14T09:11:08;102673.44;;;4.70;67.56
69223;BME280;56514;51.816;-0.026;2023-02-14T09:13:53;102668.84;;;4.87;67.37
69223;BME280;56514;51.816;-0.026;2023-02-14T09:16:38;102665.16;;;5.00;67.38
69223;BME280;56514;51.816;-0.026;2023-02-14T09:19:23;102671.97;;;5.10;67.09
69223;BME280;56514;51.816;-0.026;2023-02-14T09:22:09;102678.91;;;5.14;66.23
69223;BME280;56514;51.816;-0.026;2023-02-14T09:24:54;102679.06;;;5.05;66.59
69223;BME280;56514;51.816;-0.026;2023-02-14T09:27:39;102679.13;;;4.99;67.09
69223;BME280;56514;51.816;-0.026;2023-02-14T09:30:24;102687.94;;;4.92;67.50
69223;BME280;56514;51.816;-0.026;2023-02-14T09:33:10;102675.72;;;4.94;67.65
69223;BME280;56514;51.816;-0.026;2023-02-14T09:35:56;102670.25;;;5.09;68.06
69223;BME280;56514;51.816;-0.026;2023-02-14T09:38:56;102660.28;;;5.35;67.61
69223;BME280;56514;51.816;-0.026;2023-02-14T09:44:58;102660.31;;;5.86;66.86
69223;BME280;56514;51.816;-0.026;2023-02-14T09:50:42;102659.63;;;6.22;66.50
69223;BME280;56514;51.816;-0.026;2023-02-14T09:53:31;102652.31;;;6.39;66.19
69223;BME280;56514;51.816;-0.026;2023-02-14T09:56:23;102653.59;;;6.61;65.65
69223;BME280;56514;51.816;-0.026;2023-02-14T10:02:38;102642.16;;;7.03;65.27
69223;BME280;56514;51.816;-0.026;2023-02-14T10:05:28;102645.38;;;7.15;64.91
69223;BME280;56514;51.816;-0.026;2023-02-14T10:11:18;102641.09;;;7.47;65.13
69223;BME280;56514;51.816;-0.026;2023-02-14T10:14:10;102629.41;;;7.60;64.37
69223;BME280;56514;51.816;-0.026;2023-02-14T10:17:13;102635.13;;;7.75;64.58
69223;BME280;56514;51.816;-0.026;2023-02-14T10:20:02;102637.22;;;7.95;64.08
69223;BME280;56514;51.816;-0.026;2023-02-14T10:23:04;102628.06;;;8.09;64.13
69223;BME280;56514;51.816;-0.026;2023-02-14T10:25:59;102622.31;;;8.27;63.98
69223;BME280;56514;51.816;-0.026;2023-02-14T10:28:49;102630.59;;;8.44;63.39
69223;BME280;56514;51.816;-0.026;2023-02-14T10:31:49;102628.31;;;8.61;63.68
69223;BME280;56514;51.816;-0.026;2023-02-14T10:34:47;102625.31;;;8.73;63.22
69223;BME280;56514;51.816;-0.026;2023-02-14T10:38:03;102627.50;;;8.88;63.08
69223;BME280;56514;51.816;-0.026;2023-02-14T10:47:03;102628.13;;;9.24;61.90
69223;BME280;56514;51.816;-0.026;2023-02-14T10:53:14;102634.53;;;9.42;61.95
69223;BME280;56514;51.816;-0.026;2023-02-14T10:56:20;102626.25;;;9.54;61.64
69223;BME280;56514;51.816;-0.026;2023-02-14T10:59:18;102633.84;;;9.63;61.59
69223;BME280;56514;51.816;-0.026;2023-02-14T11:02:12;102622.97;;;9.47;60.61
69223;BME280;56514;51.816;-0.026;2023-02-14T11:05:01;102624.63;;;9.50;61.06
69223;BME280;56514;51.816;-0.026;2023-02-14T11:07:50;102623.56;;;9.55;61.17
69223;BME280;56514;51.816;-0.026;2023-02-14T11:10:37;102621.38;;;9.68;61.12
69223;BME280;56514;51.816;-0.026;2023-02-14T11:13:35;102627.03;;;9.82;60.62
69223;BME280;56514;51.816;-0.026;2023-02-14T11:21:59;102622.00;;;10.25;60.52
69223;BME280;56514;51.816;-0.026;2023-02-14T11:24:45;102611.09;;;10.34;60.65
69223;BME280;56514;51.816;-0.026;2023-02-14T11:27:32;102613.16;;;10.49;60.05
69223;BME280;56514;51.816;-0.026;2023-02-14T11:30:29;102613.56;;;10.61;59.70
69223;BME280;56514;51.816;-0.026;2023-02-14T11:33:31;102607.06;;;10.70;59.56
69223;BME280;56514;51.816;-0.026;2023-02-14T11:36:17;102602.75;;;10.91;59.84
69223;BME280;56514;51.816;-0.026;2023-02-14T11:42:03;102593.81;;;11.36;59.51
69223;BME280;56514;51.816;-0.026;2023-02-14T11:44:54;102586.47;;;11.64;59.23
69223;BME280;56514;51.816;-0.026;2023-02-14T11:47:40;102587.94;;;11.91;58.46
69223;BME280;56514;51.816;-0.026;2023-02-14T11:50:26;102578.25;;;12.10;57.79
69223;BME280;56514;51.816;-0.026;2023-02-14T11:53:20;102575.63;;;12.29;57.86
69223;BME280;56514;51.816;-0.026;2023-02-14T11:56:05;102569.69;;;12.43;57.32
69223;BME280;56514;51.816;-0.026;2023-02-14T11:58:59;102564.13;;;12.49;57.08
69223;BME280;56514;51.816;-0.026;2023-02-14T12:01:48;102567.03;;;12.43;57.31
69223;BME280;56514;51.816;-0.026;2023-02-14T12:04:38;102572.09;;;12.28;57.24
69223;BME280;56514;51.816;-0.026;2023-02-14T12:07:45;102575.53;;;12.12;57.35
69223;BME280;56514;51.816;-0.026;2023-02-14T12:10:37;102561.84;;;12.02;58.07
69223;BME280;56514;51.816;-0.026;2023-02-14T12:13:24;102557.13;;;12.09;58.05
69223;BME280;56514;51.816;-0.026;2023-02-14T12:16:21;102552.59;;;12.12;58.16
69223;BME280;56514;51.816;-0.026;2023-02-14T12:22:21;102542.13;;;12.47;57.58
69223;BME280;56514;51.816;-0.026;2023-02-14T12:25:14;102537.78;;;12.64;57.28
69223;BME280;56514;51.816;-0.026;2023-02-14T12:28:10;102539.19;;;12.71;57.11
69223;BME280;56514;51.816;-0.026;2023-02-14T12:30:59;102531.25;;;12.71;57.21
69223;BME280;56514;51.816;-0.026;2023-02-14T12:33:44;102534.69;;;12.73;57.25
69223;BME280;56514;51.816;-0.026;2023-02-14T12:42:54;102525.59;;;13.14;57.25
69223;BME280;56514;51.816;-0.026;2023-02-14T12:46:20;102527.78;;;13.23;57.02
69223;BME280;56514;51.816;-0.026;2023-02-14T12:52:30;102514.06;;;13.32;57.20
69223;BME280;56514;51.816;-0.026;2023-02-14T12:55:54;102523.72;;;13.33;56.63
69223;BME280;56514;51.816;-0.026;2023-02-14T13:01:42;102516.22;;;13.24;56.77
69223;BME280;56514;51.816;-0.026;2023-02-14T14:30:21;102402.41;;;26.41;30.13
69223;BME280;56514;51.816;-0.026;2023-02-14T14:43:19;102387.81;;;27.70;28.92
69223;BME280;56514;51.816;-0.026;2023-02-14T14:46:10;102393.06;;;28.10;28.90
69223;BME280;56514;51.816;-0.026;2023-02-14T14:48:56;102382.19;;;28.41;27.88
69223;BME280;56514;51.816;-0.026;2023-02-14T14:51:41;102392.84;;;28.50;27.85
69223;BME280;56514;51.816;-0.026;2023-02-14T14:54:27;102382.00;;;28.42;27.64
69223;BME280;56514;51.816;-0.026;2023-02-14T14:57:16;102389.72;;;28.61;27.66
69223;BME280;56514;51.816;-0.026;2023-02-14T15:00:17;102382.66;;;28.89;27.07
69223;BME280;56514;51.816;-0.026;2023-02-14T15:03:13;102379.78;;;29.28;26.80
69223;BME280;56514;51.816;-0.026;2023-02-14T15:06:16;102373.72;;;29.41;26.65
69223;BME280;56514;51.816;-0.026;2023-02-14T15:09:19;102368.19;;;29.63;26.62
69223;BME280;56514;51.816;-0.026;2023-02-14T15:12:05;102366.09;;;29.80;25.54
69223;BME280;56514;51.816;-0.026;2023-02-14T15:15:11;102355.94;;;30.03;25.76
69223;BME280;56514;51.816;-0.026;2023-02-14T15:17:57;102354.44;;;30.57;25.32
69223;BME280;56514;51.816;-0.026;2023-02-14T15:20:49;102358.53;;;30.89;24.82
69223;BME280;56514;51.816;-0.026;2023-02-14T15:23:34;102347.50;;;31.03;24.33
69223;BME280;56514;51.816;-0.026;2023-02-14T15:26:29;102352.50;;;31.00;24.76
69223;BME280;56514;51.816;-0.026;2023-02-14T15:29:25;102353.63;;;31.05;24.42
69223;BME280;56514;51.816;-0.026;2023-02-14T15:32:11;102346.31;;;31.12;24.22
69223;BME280;56514;51.816;-0.026;2023-02-14T15:34:57;102347.88;;;30.73;24.85
69223;BME280;56514;51.816;-0.026;2023-02-14T15:37:43;102341.72;;;29.72;25.34
69223;BME280;56514;51.816;-0.026;2023-02-14T15:40:31;102341.53;;;28.92;26.19
69223;BME280;56514;51.816;-0.026;2023-02-14T15:46:13;102338.03;;;29.50;25.78
69223;BME280;56514;51.816;-0.026;2023-02-14T15:49:06;102333.38;;;30.09;24.97
69223;BME280;56514;51.816;-0.026;2023-02-14T15:51:51;102339.06;;;30.49;25.00
69223;BME280;56514;51.816;-0.026;2023-02-14T15:54:41;102328.28;;;30.84;24.18
69223;BME280;56514;51.816;-0.026;2023-02-14T15:57:27;102329.28;;;31.04;24.14
69223;BME280;56514;51.816;-0.026;2023-02-14T16:00:18;102324.03;;;31.02;24.27
69223;BME280;56514;51.816;-0.026;2023-02-14T16:03:07;102321.19;;;30.89;24.31
69223;BME280;56514;51.816;-0.026;2023-02-14T16:05:54;102318.63;;;30.60;24.70
69223;BME280;56514;51.816;-0.026;2023-02-14T16:08:39;102318.72;;;30.10;25.15
69223;BME280;56514;51.816;-0.026;2023-02-14T16:11:32;102315.56;;;29.27;25.94
69223;BME280;56514;51.816;-0.026;2023-02-14T16:14:29;102319.78;;;28.10;26.67
69223;BME280;56514;51.816;-0.026;2023-02-14T16:17:30;102310.75;;;26.86;27.51
69223;BME280;56514;51.816;-0.026;2023-02-14T16:23:22;102313.53;;;25.54;30.17
69223;BME280;56514;51.816;-0.026;2023-02-14T16:26:08;102320.84;;;25.03;30.67
69223;BME280;56514;51.816;-0.026;2023-02-14T16:28:53;102321.84;;;24.24;31.25
69223;BME280;56514;51.816;-0.026;2023-02-14T16:31:41;102317.16;;;23.17;32.59
69223;BME280;56514;51.816;-0.026;2023-02-14T16:34:27;102313.50;;;21.75;34.20
69223;BME280;56514;51.816;-0.026;2023-02-14T16:37:31;102320.47;;;20.24;36.24
69223;BME280;56514;51.816;-0.026;2023-02-14T16:40:18;102317.53;;;19.07;37.52
69223;BME280;56514;51.816;-0.026;2023-02-14T16:43:04;102320.69;;;18.09;39.26
69223;BME280;56514;51.816;-0.026;2023-02-14T16:45:50;102318.84;;;17.24;40.75
69223;BME280;56514;51.816;-0.026;2023-02-14T16:48:36;102318.47;;;16.54;41.83
69223;BME280;56514;51.816;-0.026;2023-02-14T16:51:32;102318.53;;;15.87;42.90
69223;BME280;56514;51.816;-0.026;2023-02-14T16:54:20;102314.16;;;15.31;44.31
69223;BME280;56514;51.816;-0.026;2023-02-14T16:57:12;102316.47;;;14.79;45.37
69223;BME280;56514;51.816;-0.026;2023-02-14T16:59:59;102311.41;;;14.31;46.33
69223;BME280;56514;51.816;-0.026;2023-02-14T17:02:44;102307.59;;;13.90;47.50
69223;BME280;56514;51.816;-0.026;2023-02-14T17:05:31;102318.72;;;13.50;48.24
69223;BME280;56514;51.816;-0.026;2023-02-14T17:08:17;102318.81;;;13.16;48.58
69223;BME280;56514;51.816;-0.026;2023-02-14T17:11:03;102319.63;;;12.84;49.52
69223;BME280;56514;51.816;-0.026;2023-02-14T17:13:51;102317.53;;;12.56;50.54
69223;BME280;56514;51.816;-0.026;2023-02-14T17:16:36;102329.28;;;12.33;51.25
69223;BME280;56514;51.816;-0.026;2023-02-14T17:19:23;102322.50;;;12.11;52.09
69223;BME280;56514;51.816;-0.026;2023-02-14T17:22:08;102323.59;;;11.88;52.47
69223;BME280;56514;51.816;-0.026;2023-02-14T17:24:56;102327.31;;;11.66;53.37
69223;BME280;56514;51.816;-0.026;2023-02-14T17:27:41;102323.88;;;11.45;54.52
69223;BME280;56514;51.816;-0.026;2023-02-14T17:30:28;102323.72;;;11.30;54.49
69223;BME280;56514;51.816;-0.026;2023-02-14T17:33:13;102326.19;;;11.14;54.60
69223;BME280;56514;51.816;-0.026;2023-02-14T17:36:08;102329.56;;;10.98;55.03
69223;BME280;56514;51.816;-0.026;2023-02-14T17:38:55;102327.66;;;10.81;55.24
69223;BME280;56514;51.816;-0.026;2023-02-14T17:41:39;102325.63;;;10.68;55.92
69223;BME280;56514;51.816;-0.026;2023-02-14T17:44:24;102329.56;;;10.57;56.33
69223;BME280;56514;51.816;-0.026;2023-02-14T17:47:09;102321.22;;;10.48;56.65
69223;BME280;56514;51.816;-0.026;2023-02-14T17:49:55;102330.28;;;10.41;56.96
69223;BME280;56514;51.816;-0.026;2023-02-14T17:52:53;102328.84;;;10.34;57.61
69223;BME280;56514;51.816;-0.026;2023-02-14T17:55:38;102322.31;;;10.21;59.90
69223;BME280;56514;51.816;-0.026;2023-02-14T17:58:23;102328.91;;;10.11;59.63